Time;durP1;ratioP1;P1;durP2;ratioP2;P2;SDS_P1;SDS_P2;PMS_P1;PMS_P2;Temp;Humidity;BMP_temperature;BMP_pressure;BME280_temperature;BME280_humidity;BME280_pressure;Samples;Min_cycle;Max_cycle;Signal;HPM_P1;HPM_P2
2023/10/23 00:01:12;;;;;;;8.15;2.08;;;;;;;5.88;100.00;97063.56;5043815;28;20080;-65
2023/10/23 00:03:38;;;;;;;4.80;1.55;;;;;;;5.66;100.00;97061.38;5043175;28;20880;-64
2023/10/23 00:06:05;;;;;;;4.78;1.90;;;;;;;5.67;100.00;97063.84;5046209;28;20458;-64
2023/10/23 00:08:32;;;;;;;6.00;1.60;;;;;;;5.73;100.00;97065.63;5041710;28;20053;-63
2023/10/23 00:10:58;;;;;;;3.28;1.60;;;;;;;5.76;100.00;97064.34;5044345;28;20044;-64
2023/10/23 00:13:25;;;;;;;7.22;1.70;;;;;;;5.72;100.00;97063.97;5042457;28;20040;-64
2023/10/23 00:15:51;;;;;;;4.20;2.00;;;;;;;5.72;100.00;97060.50;5036757;28;20570;-65
2023/10/23 00:18:18;;;;;;;6.75;1.52;;;;;;;5.71;100.00;97066.88;5046012;28;20102;-66
2023/10/23 00:20:44;;;;;;;4.13;2.10;;;;;;;5.55;100.00;97073.72;5046174;28;20053;-64
2023/10/23 00:23:11;;;;;;;7.03;1.67;;;;;;;5.66;100.00;97081.00;5046162;28;20052;-63
2023/10/23 00:25:38;;;;;;;5.35;1.92;;;;;;;5.70;100.00;97078.69;5037205;28;20219;-64
2023/10/23 00:28:04;;;;;;;5.78;1.83;;;;;;;5.72;100.00;97076.59;5044300;28;20381;-64
2023/10/23 00:30:34;;;;;;;4.03;1.63;;;;;;;5.73;100.00;97086.28;5047209;28;20044;-66
2023/10/23 00:33:01;;;;;;;6.28;1.80;;;;;;;5.66;100.00;97085.56;5045210;28;20036;-64
2023/10/23 00:35:28;;;;;;;5.75;1.80;;;;;;;5.70;100.00;97084.88;5043198;28;20040;-64
2023/10/23 00:37:54;;;;;;;4.15;1.70;;;;;;;5.66;100.00;97093.63;5037069;28;20129;-63
2023/10/23 00:40:21;;;;;;;3.03;1.60;;;;;;;5.79;100.00;97089.94;5045173;28;20037;-63
2023/10/23 00:42:47;;;;;;;4.63;1.80;;;;;;;5.67;100.00;97077.28;5048315;28;20047;-63
2023/10/23 00:45:14;;;;;;;6.65;2.00;;;;;;;5.72;100.00;97074.72;5046751;28;20033;-65
2023/10/23 00:47:41;;;;;;;5.68;2.33;;;;;;;5.77;100.00;97087.47;5041766;28;20530;-64
2023/10/23 00:50:07;;;;;;;5.45;1.70;;;;;;;5.75;100.00;97081.50;5033670;28;20065;-64
2023/10/23 00:52:35;;;;;;;5.03;1.85;;;;;;;5.69;100.00;97085.94;5038918;28;20120;-64
2023/10/23 00:55:03;;;;;;;6.57;2.28;;;;;;;5.49;100.00;97080.00;5045939;28;20041;-64
2023/10/23 00:57:31;;;;;;;6.95;2.83;;;;;;;5.35;100.00;97088.22;5041342;28;20043;-63
2023/10/23 00:59:59;;;;;;;5.60;2.10;;;;;;;5.28;100.00;97088.31;5046619;28;20048;-65
2023/10/23 01:02:25;;;;;;;6.13;1.98;;;;;;;5.23;100.00;97090.81;5047096;28;20094;-65
2023/10/23 01:04:52;;;;;;;4.07;1.85;;;;;;;5.24;100.00;97089.81;5042496;28;20052;-63
2023/10/23 01:07:19;;;;;;;8.00;2.40;;;;;;;5.28;100.00;97085.63;5064941;28;20029;-66
2023/10/23 01:09:45;;;;;;;3.08;1.70;;;;;;;5.42;100.00;97088.94;5049679;28;20037;-65
2023/10/23 01:12:12;;;;;;;5.88;2.00;;;;;;;5.50;100.00;97085.16;5046457;28;21355;-64
2023/10/23 01:14:38;;;;;;;4.38;2.03;;;;;;;5.51;100.00;97075.22;5045839;28;20044;-64
2023/10/23 01:17:05;;;;;;;4.93;1.98;;;;;;;5.36;100.00;97070.25;5043552;28;20044;-64
2023/10/23 01:19:32;;;;;;;3.58;1.75;;;;;;;5.13;100.00;97071.75;5045205;28;20052;-64
2023/10/23 01:21:58;;;;;;;5.25;2.00;;;;;;;4.96;100.00;97066.97;5048724;28;20037;-64
2023/10/23 01:24:26;;;;;;;3.08;1.60;;;;;;;5.00;100.00;97078.91;5041609;28;20037;-64
2023/10/23 01:26:53;;;;;;;5.47;2.22;;;;;;;5.07;100.00;97073.47;5047757;28;20219;-65
2023/10/23 01:29:19;;;;;;;6.75;2.47;;;;;;;5.16;100.00;97071.31;5051081;28;20051;-63
2023/10/23 01:31:46;;;;;;;5.40;2.08;;;;;;;5.41;100.00;97073.06;5039634;28;20052;-64
2023/10/23 01:34:13;;;;;;;7.35;1.75;;;;;;;5.57;100.00;97072.44;5037468;28;20132;-64
2023/10/23 01:36:39;;;;;;;3.13;1.77;;;;;;;5.60;100.00;97065.78;5048955;28;20711;-63
2023/10/23 01:39:06;;;;;;;4.40;1.88;;;;;;;5.45;100.00;97071.56;5045634;28;20087;-64
2023/10/23 01:41:32;;;;;;;4.47;1.80;;;;;;;5.60;100.00;97066.63;5050524;28;20048;-63
2023/10/23 01:43:59;;;;;;;5.53;2.00;;;;;;;5.63;100.00;97065.34;5050418;28;20080;-65
2023/10/23 01:46:25;;;;;;;4.40;1.83;;;;;;;5.70;100.00;97067.94;5041456;28;20044;-63
2023/10/23 01:48:53;;;;;;;4.47;1.90;;;;;;;5.82;100.00;97068.00;5047479;28;20076;-65
2023/10/23 01:51:21;;;;;;;4.65;1.90;;;;;;;5.64;100.00;97060.81;5061112;28;20527;-63
2023/10/23 01:53:47;;;;;;;5.15;1.67;;;;;;;5.57;100.00;97056.31;5047073;28;20098;-64
2023/10/23 01:56:14;;;;;;;6.30;2.05;;;;;;;5.52;100.00;97066.94;5053582;28;20033;-64
2023/10/23 01:58:41;;;;;;;7.53;2.08;;;;;;;5.57;100.00;97055.53;5038306;28;20052;-63
2023/10/23 02:01:18;;;;;;;4.22;2.20;;;;;;;5.71;100.00;97056.13;5059650;28;20041;-63
2023/10/23 02:03:45;;;;;;;5.03;1.83;;;;;;;5.69;100.00;97053.72;5042153;28;20041;-64
2023/10/23 02:06:12;;;;;;;5.72;1.98;;;;;;;5.71;100.00;97050.75;5050542;28;20037;-64
2023/10/23 02:08:38;;;;;;;4.75;1.85;;;;;;;5.76;100.00;97053.59;5044549;28;20100;-63
2023/10/23 02:11:06;;;;;;;6.22;1.77;;;;;;;5.71;100.00;97051.59;5043973;28;20684;-63
2023/10/23 02:13:33;;;;;;;5.88;2.53;;;;;;;5.87;100.00;97052.00;5042388;28;20578;-63
2023/10/23 02:16:00;;;;;;;5.43;2.13;;;;;;;5.73;100.00;97046.00;5041469;28;20072;-63
2023/10/23 02:18:26;;;;;;;4.65;2.00;;;;;;;5.47;100.00;97056.06;5048377;28;20032;-63
2023/10/23 02:20:53;;;;;;;4.78;1.80;;;;;;;5.51;100.00;97051.03;5044789;28;20072;-65
2023/10/23 02:23:20;;;;;;;7.03;1.88;;;;;;;5.40;100.00;97050.78;5053199;28;20127;-63
2023/10/23 02:25:46;;;;;;;7.45;2.05;;;;;;;5.39;100.00;97042.94;5039763;28;20049;-63
2023/10/23 02:28:14;;;;;;;4.65;2.25;;;;;;;5.40;100.00;97049.94;5050210;28;20041;-64
2023/10/23 02:30:40;;;;;;;3.33;1.80;;;;;;;5.23;100.00;97057.81;5045440;28;20504;-64
2023/10/23 02:33:07;;;;;;;5.43;2.00;;;;;;;4.94;100.00;97053.78;5047796;28;20045;-64
2023/10/23 02:35:36;;;;;;;6.40;1.98;;;;;;;5.07;100.00;97057.38;5048064;28;20092;-66
2023/10/23 02:38:03;;;;;;;4.28;1.80;;;;;;;5.23;100.00;97050.56;5048972;28;20063;-63
2023/10/23 02:40:30;;;;;;;3.85;2.17;;;;;;;5.20;100.00;97054.53;5044519;28;20045;-65
2023/10/23 02:42:56;;;;;;;3.90;1.90;;;;;;;5.29;100.00;97055.03;5050536;28;20036;-64
2023/10/23 02:45:23;;;;;;;4.00;1.80;;;;;;;5.28;100.00;97056.09;5044942;28;20045;-64
2023/10/23 02:47:50;;;;;;;6.97;2.35;;;;;;;5.38;100.00;97060.91;5041256;28;20393;-64
2023/10/23 02:50:16;;;;;;;4.53;1.73;;;;;;;5.39;100.00;97051.84;5045474;28;20068;-64
2023/10/23 02:52:43;;;;;;;4.28;1.80;;;;;;;5.37;100.00;97059.28;5041153;28;20068;-63
2023/10/23 02:55:11;;;;;;;4.65;2.20;;;;;;;5.43;100.00;97058.38;5050121;28;20045;-63
2023/10/23 02:57:38;;;;;;;3.72;1.90;;;;;;;5.36;100.00;97060.34;5048459;28;20652;-63
2023/10/23 03:00:05;;;;;;;3.55;1.77;;;;;;;5.35;100.00;97053.34;5044832;28;20630;-63
2023/10/23 03:02:33;;;;;;;6.28;1.98;;;;;;;5.32;100.00;97051.09;5048628;28;20045;-64
2023/10/23 03:04:59;;;;;;;5.90;2.03;;;;;;;5.26;100.00;97057.34;5043215;28;20496;-65
2023/10/23 03:07:26;;;;;;;4.25;2.17;;;;;;;5.20;100.00;97051.84;5051165;28;20543;-63
2023/10/23 03:09:53;;;;;;;6.07;2.00;;;;;;;5.11;100.00;97060.41;5041440;28;20504;-63
2023/10/23 03:12:20;;;;;;;5.35;2.28;;;;;;;5.12;100.00;97060.19;5045929;28;20094;-63
2023/10/23 03:14:46;;;;;;;5.40;1.98;;;;;;;5.17;100.00;97060.34;5042066;28;20557;-65
2023/10/23 03:17:13;;;;;;;6.72;2.45;;;;;;;5.04;100.00;97063.19;5051099;28;20422;-64
2023/10/23 03:19:39;;;;;;;5.18;2.30;;;;;;;4.91;100.00;97064.16;5048330;28;20048;-64
2023/10/23 03:22:06;;;;;;;9.93;2.70;;;;;;;4.86;100.00;97069.38;5047722;28;20037;-63
2023/10/23 03:24:32;;;;;;;7.10;2.47;;;;;;;4.69;100.00;97068.06;5044586;28;20670;-63
2023/10/23 03:26:59;;;;;;;6.03;2.50;;;;;;;4.81;100.00;97067.34;5044893;28;20545;-64
2023/10/23 03:29:26;;;;;;;3.50;2.00;;;;;;;4.72;100.00;97064.13;5042733;28;20041;-63
2023/10/23 03:31:52;;;;;;;4.43;1.90;;;;;;;4.67;100.00;97062.13;5047399;28;20128;-64
2023/10/23 03:34:19;;;;;;;11.25;1.92;;;;;;;4.65;100.00;97058.81;5045365;28;20055;-64
2023/10/23 03:36:45;;;;;;;4.80;1.77;;;;;;;4.66;100.00;97065.84;5039931;28;20065;-64
2023/10/23 03:39:12;;;;;;;3.97;1.90;;;;;;;4.65;100.00;97066.06;5045724;28;20037;-64
2023/10/23 03:41:38;;;;;;;6.75;2.13;;;;;;;4.62;100.00;97059.28;5051072;28;20127;-64
2023/10/23 03:44:05;;;;;;;4.32;2.10;;;;;;;4.56;100.00;97060.16;5049910;28;20191;-64
2023/10/23 03:46:32;;;;;;;5.70;2.40;;;;;;;4.33;100.00;97063.44;5042590;28;20111;-64
2023/10/23 03:48:58;;;;;;;5.00;1.90;;;;;;;4.21;100.00;97066.88;5058230;28;20041;-64
2023/10/23 03:51:25;;;;;;;7.00;2.40;;;;;;;4.00;100.00;97068.88;5055986;28;20041;-64
2023/10/23 03:53:52;;;;;;;4.60;2.05;;;;;;;3.92;100.00;97074.50;5047752;28;20615;-64
2023/10/23 03:56:19;;;;;;;5.75;2.55;;;;;;;3.85;100.00;97068.34;5049144;28;20082;-64
2023/10/23 03:58:45;;;;;;;5.10;2.20;;;;;;;3.74;100.00;97077.88;5043741;28;20049;-63
2023/10/23 04:01:12;;;;;;;5.20;2.55;;;;;;;3.71;100.00;97079.16;5048094;28;20033;-64
2023/10/23 04:03:39;;;;;;;5.28;2.50;;;;;;;3.63;100.00;97076.72;5044205;28;20045;-64
2023/10/23 04:06:06;;;;;;;4.85;2.47;;;;;;;3.58;100.00;97072.00;5043960;28;20546;-64
2023/10/23 04:08:32;;;;;;;3.50;1.95;;;;;;;3.57;100.00;97072.22;5043135;28;20040;-64
2023/10/23 04:10:59;;;;;;;5.18;2.47;;;;;;;3.59;100.00;97062.94;5047726;28;20487;-64
2023/10/23 04:13:25;;;;;;;3.88;2.08;;;;;;;3.63;100.00;97055.28;5041698;28;20040;-63
2023/10/23 04:15:57;;;;;;;5.93;2.20;;;;;;;3.67;100.00;97050.31;5049084;28;20044;-65
2023/10/23 04:18:27;;;;;;;4.50;2.00;;;;;;;3.64;100.00;97048.91;5046615;28;20123;-64
2023/10/23 04:21:04;;;;;;;4.43;2.03;;;;;;;3.58;100.00;97053.25;5045511;28;20613;-64
2023/10/23 04:23:32;;;;;;;6.13;2.70;;;;;;;3.52;100.00;97054.13;5041461;28;20685;-64
2023/10/23 04:25:58;;;;;;;7.43;3.00;;;;;;;3.68;100.00;97068.06;5046281;28;20090;-64
2023/10/23 04:28:25;;;;;;;6.18;2.28;;;;;;;3.82;100.00;97056.22;5047222;28;20047;-64
2023/10/23 04:30:52;;;;;;;6.60;2.15;;;;;;;3.81;100.00;97054.56;5046159;28;20150;-66
2023/10/23 04:33:22;;;;;;;7.22;2.85;;;;;;;3.81;100.00;97048.38;5048325;28;20590;-64
2023/10/23 04:35:53;;;;;;;12.55;3.25;;;;;;;3.88;100.00;97049.16;5039621;28;20550;-64
2023/10/23 04:38:21;;;;;;;5.72;2.15;;;;;;;3.70;100.00;97047.22;5041165;28;20048;-64
2023/10/23 04:40:50;;;;;;;3.92;2.17;;;;;;;3.61;100.00;97047.47;5048185;28;20033;-65
2023/10/23 04:43:16;;;;;;;5.10;2.25;;;;;;;3.61;100.00;97052.03;5050855;28;20051;-65
2023/10/23 04:45:43;;;;;;;5.07;2.08;;;;;;;3.51;100.00;97042.59;5044304;28;20473;-65
2023/10/23 04:48:10;;;;;;;4.88;2.20;;;;;;;3.41;100.00;97041.41;5044378;28;20052;-65
2023/10/23 04:50:38;;;;;;;4.93;2.30;;;;;;;3.38;100.00;97050.69;5039063;28;20049;-64
2023/10/23 04:53:06;;;;;;;5.45;2.35;;;;;;;3.33;100.00;97043.31;5043520;28;20492;-65
2023/10/23 04:55:38;;;;;;;4.43;2.30;;;;;;;3.37;100.00;97041.84;5038926;28;20041;-65
2023/10/23 04:58:05;;;;;;;4.53;2.00;;;;;;;3.54;100.00;97040.53;5038628;28;20057;-65
2023/10/23 05:00:37;;;;;;;6.65;2.45;;;;;;;3.70;100.00;97029.31;5047102;28;20072;-65
2023/10/23 05:03:04;;;;;;;;;;;;;;;3.85;100.00;97022.81;5041494;28;20037;-65
2023/10/23 05:05:31;;;;;;;3.53;1.77;;;;;;;3.77;100.00;97019.34;5043393;28;19924;-64
2023/10/23 05:07:58;;;;;;;5.05;1.58;;;;;;;3.88;100.00;97012.47;5044479;28;20431;-66
2023/10/23 05:10:25;;;;;;;4.53;2.30;;;;;;;3.76;100.00;97008.88;5043049;28;20079;-65
2023/10/23 05:12:53;;;;;;;6.47;2.40;;;;;;;3.60;100.00;97013.72;5043107;28;20045;-65
2023/10/23 05:15:20;;;;;;;5.13;2.42;;;;;;;3.69;100.00;97010.78;5043066;28;20569;-64
2023/10/23 05:17:46;;;;;;;4.93;2.58;;;;;;;3.80;100.00;97007.41;5038086;28;20472;-65
2023/10/23 05:20:13;;;;;;;4.35;2.35;;;;;;;3.67;100.00;97008.31;5039637;28;20562;-65
2023/10/23 05:22:40;;;;;;;5.00;2.42;;;;;;;3.56;100.00;97014.34;5036537;28;20060;-65
2023/10/23 05:25:08;;;;;;;5.88;2.70;;;;;;;3.47;100.00;97016.47;5037992;28;20119;-64
2023/10/23 05:27:36;;;;;;;6.38;3.00;;;;;;;3.37;100.00;97019.63;5048134;28;20581;-65
2023/10/23 05:30:05;;;;;;;5.28;2.90;;;;;;;3.27;100.00;97020.06;5038035;28;20500;-65
2023/10/23 05:32:35;;;;;;;4.90;2.72;;;;;;;3.26;100.00;97034.50;5047239;28;20040;-65
2023/10/23 05:35:03;;;;;;;8.48;2.85;;;;;;;3.29;100.00;97023.38;5038573;28;20452;-65
2023/10/23 05:37:33;;;;;;;6.53;2.70;;;;;;;3.37;100.00;97035.66;5041189;28;20052;-65
2023/10/23 05:39:59;;;;;;;5.15;2.60;;;;;;;3.49;100.00;97023.25;5043633;28;20045;-64
2023/10/23 05:42:26;;;;;;;8.45;2.72;;;;;;;3.46;100.00;97029.03;5041053;28;20115;-64
2023/10/23 05:44:52;;;;;;;4.75;2.33;;;;;;;3.51;100.00;97031.88;5050155;28;20041;-64
2023/10/23 05:47:19;;;;;;;5.38;2.40;;;;;;;3.55;100.00;97031.44;5049066;28;20049;-65
2023/10/23 05:49:45;;;;;;;5.65;2.38;;;;;;;3.42;100.00;97033.16;5042924;28;20090;-65
2023/10/23 05:52:12;;;;;;;5.32;2.42;;;;;;;3.53;100.00;97044.25;5046691;28;20041;-64
2023/10/23 05:54:38;;;;;;;5.35;2.60;;;;;;;3.78;100.00;97044.28;5043475;28;20041;-64
2023/10/23 05:57:05;;;;;;;7.65;2.90;;;;;;;3.48;100.00;97042.19;5044954;28;20056;-65
2023/10/23 05:59:32;;;;;;;7.85;2.78;;;;;;;3.44;100.00;97047.19;5043262;28;20036;-64
2023/10/23 06:01:59;;;;;;;9.25;3.13;;;;;;;3.42;100.00;97054.59;5045979;28;20052;-65
2023/10/23 06:04:25;;;;;;;7.20;2.70;;;;;;;3.46;100.00;97050.44;5044431;28;20043;-64
2023/10/23 06:06:52;;;;;;;8.77;2.80;;;;;;;3.55;100.00;97045.66;5046994;28;20047;-64
2023/10/23 06:09:19;;;;;;;8.20;2.63;;;;;;;3.60;100.00;97048.53;5039587;28;20040;-65
2023/10/23 06:11:45;;;;;;;7.53;2.65;;;;;;;3.55;100.00;97051.03;5044524;28;20048;-63
2023/10/23 06:14:12;;;;;;;6.18;2.50;;;;;;;3.58;100.00;97050.56;5046665;28;20872;-64
2023/10/23 06:16:39;;;;;;;6.00;2.90;;;;;;;3.55;100.00;97060.91;5039859;28;20500;-64
2023/10/23 06:19:06;;;;;;;8.63;3.15;;;;;;;3.53;100.00;97065.66;5048880;28;20145;-65
2023/10/23 06:21:32;;;;;;;11.10;2.67;;;;;;;3.59;100.00;97062.13;5038283;28;20045;-65
2023/10/23 06:23:59;;;;;;;7.03;3.17;;;;;;;3.48;100.00;97058.25;5040492;28;20493;-65
2023/10/23 06:26:28;;;;;;;6.88;3.30;;;;;;;3.50;100.00;97048.97;5050581;28;20045;-64
2023/10/23 06:28:55;;;;;;;7.50;3.67;;;;;;;3.51;100.00;97047.13;5043499;28;20067;-64
2023/10/23 06:31:22;;;;;;;9.75;3.38;;;;;;;3.51;100.00;97041.78;5047814;28;20044;-65
2023/10/23 06:33:51;;;;;;;6.93;3.25;;;;;;;3.64;100.00;97033.66;5043684;28;20048;-65
2023/10/23 06:36:17;;;;;;;6.03;3.13;;;;;;;3.72;100.00;97035.25;5040327;28;20049;-65
2023/10/23 06:38:44;;;;;;;5.05;2.97;;;;;;;3.80;100.00;97030.69;5043363;28;20040;-65
2023/10/23 06:41:10;;;;;;;6.13;2.97;;;;;;;3.82;100.00;97026.75;5045460;28;20057;-65
2023/10/23 06:43:37;;;;;;;7.32;3.75;;;;;;;3.76;100.00;97020.41;5041757;28;20071;-64
2023/10/23 06:46:04;;;;;;;8.80;3.38;;;;;;;3.74;100.00;97032.38;5043453;28;20060;-64
2023/10/23 06:48:30;;;;;;;6.72;3.20;;;;;;;3.75;100.00;97040.19;5041385;28;20103;-65
2023/10/23 06:50:58;;;;;;;7.57;2.92;;;;;;;3.90;100.00;97042.56;5043182;28;20056;-66
2023/10/23 06:53:25;;;;;;;10.00;3.40;;;;;;;4.00;100.00;97031.38;5046035;28;20072;-65
2023/10/23 06:55:53;;;;;;;6.50;3.25;;;;;;;4.10;100.00;97033.56;5045860;28;20068;-65
2023/10/23 06:58:21;;;;;;;5.07;3.13;;;;;;;4.32;100.00;97027.81;5045384;28;20047;-64
2023/10/23 07:00:48;;;;;;;5.80;2.85;;;;;;;4.47;100.00;97026.63;5043220;28;20053;-64
2023/10/23 07:03:15;;;;;;;6.00;2.90;;;;;;;4.54;100.00;97016.66;5037218;28;20103;-64
2023/10/23 07:05:43;;;;;;;5.47;3.30;;;;;;;4.57;100.00;97007.38;5047937;28;20447;-65
2023/10/23 07:08:09;;;;;;;7.03;3.33;;;;;;;4.63;100.00;97014.50;5041733;28;20099;-64
2023/10/23 07:10:37;;;;;;;9.32;3.47;;;;;;;4.79;100.00;97010.44;5045394;28;20068;-64
2023/10/23 07:13:04;;;;;;;5.20;2.72;;;;;;;4.91;100.00;97010.50;5047068;28;20045;-64
2023/10/23 07:15:48;;;;;;;5.35;2.65;;;;;;;4.98;100.00;97005.06;5050508;28;20056;-65
2023/10/23 07:18:16;;;;;;;6.97;2.95;;;;;;;4.98;100.00;97007.72;5046967;28;20613;-64
2023/10/23 07:20:57;;;;;;;5.07;2.70;;;;;;;5.06;100.00;97016.28;5044959;28;20051;-64
2023/10/23 07:23:24;;;;;;;5.82;2.47;;;;;;;5.12;100.00;97011.09;5051371;28;20427;-64
2023/10/23 07:26:00;;;;;;;6.13;2.85;;;;;;;5.25;100.00;97018.13;5045617;28;20409;-64
2023/10/23 07:28:26;;;;;;;8.80;2.65;;;;;;;5.41;100.00;97005.94;5053180;28;20032;-65
2023/10/23 07:30:53;;;;;;;4.93;2.72;;;;;;;5.53;100.00;97001.44;5043604;28;20045;-64
2023/10/23 07:33:19;;;;;;;6.22;2.25;;;;;;;5.68;100.00;96994.84;5043482;28;20045;-64
2023/10/23 07:35:46;;;;;;;5.65;2.90;;;;;;;5.79;100.00;96993.22;5045997;28;20158;-65
2023/10/23 07:38:19;;;;;;;6.93;3.45;;;;;;;5.89;100.00;97000.72;5046266;28;20107;-65
2023/10/23 07:40:45;;;;;;;5.53;2.80;;;;;;;6.08;100.00;96985.38;5044799;28;20175;-64
2023/10/23 07:43:12;;;;;;;5.55;3.20;;;;;;;6.14;100.00;96978.22;5049876;28;20044;-65
2023/10/23 07:45:39;;;;;;;6.28;3.45;;;;;;;6.19;100.00;96989.91;5049154;28;20041;-64
2023/10/23 07:48:05;;;;;;;5.63;3.30;;;;;;;6.30;100.00;96990.97;5048448;28;20714;-65
2023/10/23 07:50:32;;;;;;;8.20;3.20;;;;;;;6.34;100.00;96986.75;5047720;28;20040;-65
2023/10/23 07:52:59;;;;;;;5.38;3.10;;;;;;;6.43;100.00;96981.84;5044977;28;20037;-65
2023/10/23 07:55:25;;;;;;;7.57;3.60;;;;;;;6.56;100.00;96978.09;5050244;28;20044;-65
2023/10/23 07:57:52;;;;;;;10.02;3.92;;;;;;;6.70;100.00;96980.53;5044975;28;20516;-65
2023/10/23 08:00:19;;;;;;;8.45;3.55;;;;;;;6.90;100.00;96977.47;5046910;28;20126;-65
2023/10/23 08:02:45;;;;;;;7.88;2.97;;;;;;;6.97;100.00;96964.66;5045295;28;20150;-65
2023/10/23 08:05:12;;;;;;;7.05;3.40;;;;;;;7.10;100.00;96960.06;5044463;28;20616;-65
2023/10/23 08:07:38;;;;;;;7.65;3.53;;;;;;;7.22;100.00;96962.72;5046350;28;20075;-65
2023/10/23 08:10:05;;;;;;;7.88;3.33;;;;;;;7.37;100.00;96960.31;5050704;28;20036;-65
2023/10/23 08:12:32;;;;;;;10.27;3.92;;;;;;;7.49;100.00;96954.84;5043763;28;20041;-64
2023/10/23 08:14:58;;;;;;;7.03;3.40;;;;;;;7.58;100.00;96954.47;5043851;28;20037;-65
2023/10/23 08:17:25;;;;;;;5.68;3.45;;;;;;;7.66;100.00;96948.66;5050886;28;20107;-65
2023/10/23 08:20:08;;;;;;;6.55;3.00;;;;;;;7.81;100.00;96945.41;5038101;28;20055;-65
2023/10/23 08:22:36;;;;;;;5.18;2.80;;;;;;;7.93;100.00;96951.53;5044811;28;20083;-64
2023/10/23 08:25:02;;;;;;;8.23;2.75;;;;;;;8.04;100.00;96946.34;5046057;28;20044;-65
2023/10/23 08:27:30;;;;;;;6.40;3.15;;;;;;;8.11;100.00;96962.34;5040520;28;20599;-66
2023/10/23 08:29:56;;;;;;;7.45;3.60;;;;;;;8.12;100.00;96966.66;5044351;28;20424;-65
2023/10/23 08:32:23;;;;;;;7.80;3.00;;;;;;;8.13;100.00;96966.44;5043947;28;20164;-66
2023/10/23 08:34:59;;;;;;;5.72;2.72;;;;;;;8.19;100.00;96962.72;5039616;28;20555;-65
2023/10/23 08:37:25;;;;;;;9.02;3.30;;;;;;;8.27;100.00;96958.00;5046410;28;20059;-65
2023/10/23 08:39:52;;;;;;;5.70;2.58;;;;;;;8.42;100.00;96962.78;5047760;28;20044;-65
2023/10/23 08:42:21;;;;;;;9.00;2.83;;;;;;;8.50;100.00;96961.53;5036471;28;20114;-64
2023/10/23 08:44:50;;;;;;;7.25;2.60;;;;;;;8.60;100.00;96959.03;5044301;28;20714;-65
2023/10/23 08:47:17;;;;;;;6.13;2.78;;;;;;;8.67;100.00;96965.03;5048783;28;20044;-64
2023/10/23 08:49:44;;;;;;;5.07;2.47;;;;;;;8.69;100.00;96965.63;5041941;28;20033;-65
2023/10/23 08:52:11;;;;;;;4.75;2.05;;;;;;;8.77;100.00;96964.38;5046549;28;20484;-65
2023/10/23 08:54:39;;;;;;;4.93;1.77;;;;;;;8.90;100.00;96960.50;5043136;28;20075;-64
2023/10/23 08:57:06;;;;;;;5.72;2.65;;;;;;;9.03;100.00;96955.78;5042730;28;20575;-64
2023/10/23 08:59:33;;;;;;;8.07;2.38;;;;;;;9.10;100.00;96957.22;5044733;28;20044;-64
2023/10/23 09:01:59;;;;;;;7.57;2.42;;;;;;;9.13;100.00;96958.59;5046340;28;20041;-66
2023/10/23 09:04:28;;;;;;;6.43;2.10;;;;;;;9.23;100.00;96947.91;5046703;28;20072;-65
2023/10/23 09:06:58;;;;;;;4.78;1.42;;;;;;;9.36;100.00;96940.44;5044874;28;20065;-64
2023/10/23 09:09:26;;;;;;;5.43;1.67;;;;;;;9.46;100.00;96953.25;5048072;28;20062;-64
2023/10/23 09:11:52;;;;;;;3.53;1.40;;;;;;;9.53;100.00;96945.75;5047878;28;20515;-65
2023/10/23 09:14:28;;;;;;;3.85;1.65;;;;;;;9.61;100.00;96958.00;5042802;28;20842;-63
2023/10/23 09:16:57;;;;;;;3.90;1.45;;;;;;;9.67;100.00;96951.56;5050618;28;20033;-63
2023/10/23 09:19:39;;;;;;;5.63;1.50;;;;;;;9.74;100.00;96940.56;5050611;28;20053;-64
2023/10/23 09:22:07;;;;;;;4.05;1.50;;;;;;;9.81;100.00;96941.16;5045389;28;20037;-65
2023/10/23 09:24:35;;;;;;;6.75;1.55;;;;;;;9.83;100.00;96939.00;5049809;28;20036;-64
2023/10/23 09:27:03;;;;;;;3.72;1.48;;;;;;;9.86;100.00;96937.66;5051197;28;20120;-65
2023/10/23 09:29:29;;;;;;;4.65;1.80;;;;;;;9.82;100.00;96936.56;5050458;28;20145;-64
2023/10/23 09:31:58;;;;;;;5.68;1.80;;;;;;;9.91;100.00;96942.31;5046562;28;20585;-65
2023/10/23 09:34:26;;;;;;;4.72;1.52;;;;;;;9.96;100.00;96935.06;5041934;28;20041;-65
2023/10/23 09:36:52;;;;;;;7.00;1.67;;;;;;;9.96;100.00;96936.94;5051007;28;20683;-65
2023/10/23 09:39:23;;;;;;;6.72;1.83;;;;;;;9.95;100.00;96938.81;5046098;28;20037;-64
2023/10/23 09:41:51;;;;;;;4.95;1.40;;;;;;;10.00;100.00;96948.88;5052028;28;20056;-64
2023/10/23 09:44:17;;;;;;;6.32;1.88;;;;;;;9.93;100.00;96945.56;5052383;28;20041;-64
2023/10/23 09:46:47;;;;;;;6.75;1.63;;;;;;;9.87;100.00;96948.22;5047016;28;20480;-64
2023/10/23 09:49:15;;;;;;;4.60;1.50;;;;;;;9.95;100.00;96960.44;5051694;28;20477;-65
2023/10/23 09:51:42;;;;;;;3.72;1.67;;;;;;;9.97;100.00;96958.31;5055499;28;20097;-64
2023/10/23 09:54:19;;;;;;;4.65;1.50;;;;;;;9.95;100.00;96957.75;5047456;28;20539;-64
2023/10/23 09:56:49;;;;;;;5.78;1.75;;;;;;;10.04;100.00;96960.81;5046375;28;20042;-64
2023/10/23 09:59:39;;;;;;;4.60;2.28;;;;;;;10.13;100.00;96953.00;5047163;28;20937;-64
2023/10/23 10:02:09;;;;;;;4.35;1.73;;;;;;;10.22;100.00;96951.47;5048086;28;20044;-64
2023/10/23 10:04:48;;;;;;;5.03;1.60;;;;;;;10.27;100.00;96943.38;5047872;28;20712;-65
2023/10/23 10:07:25;;;;;;;4.85;1.70;;;;;;;10.34;100.00;96942.34;5046701;28;20045;-65
2023/10/23 10:09:53;;;;;;;5.50;2.53;;;;;;;10.37;100.00;96931.81;5046344;28;20053;-65
2023/10/23 10:12:20;;;;;;;6.43;1.90;;;;;;;10.45;100.00;96930.53;5052040;28;20047;-64
2023/10/23 10:14:48;;;;;;;8.20;2.30;;;;;;;10.47;100.00;96930.28;5049624;28;20082;-64
2023/10/23 10:17:20;;;;;;;6.75;1.90;;;;;;;10.51;100.00;96932.19;5046643;28;20532;-64
2023/10/23 10:19:47;;;;;;;4.60;1.20;;;;;;;10.57;100.00;96933.03;5049004;28;20056;-65
2023/10/23 10:22:22;;;;;;;3.35;1.42;;;;;;;10.59;100.00;96930.06;5043166;28;20053;-64
2023/10/23 10:24:49;;;;;;;6.60;1.85;;;;;;;10.65;100.00;96921.69;5039439;28;20045;-63
2023/10/23 10:27:16;;;;;;;5.22;2.15;;;;;;;10.70;100.00;96917.38;5042880;28;20099;-63
2023/10/23 10:29:43;;;;;;;6.03;1.80;;;;;;;10.73;100.00;96914.94;5048267;28;20040;-63
2023/10/23 10:32:10;;;;;;;6.57;2.00;;;;;;;10.75;100.00;96911.97;5045149;28;20049;-65
2023/10/23 10:34:45;;;;;;;5.30;1.95;;;;;;;10.79;100.00;96910.38;5048195;28;20048;-65
2023/10/23 10:37:13;;;;;;;5.88;2.08;;;;;;;10.84;100.00;96909.59;5041743;28;20563;-65
2023/10/23 10:39:52;;;;;;;4.68;2.30;;;;;;;10.82;100.00;96907.16;5040422;28;20098;-65
2023/10/23 10:42:22;;;;;;;6.72;2.25;;;;;;;10.89;100.00;96901.47;5045205;28;20045;-64
2023/10/23 10:44:52;;;;;;;3.90;2.10;;;;;;;10.97;100.00;96897.44;5050926;28;20463;-65
2023/10/23 10:47:20;;;;;;;7.53;2.10;;;;;;;11.01;100.00;96896.66;5045957;28;20477;-64
2023/10/23 10:49:47;;;;;;;6.47;2.28;;;;;;;11.10;100.00;96893.41;5048684;28;20068;-65
2023/10/23 10:52:30;;;;;;;7.47;2.22;;;;;;;11.17;100.00;96888.56;5040032;28;20407;-64
2023/10/23 10:55:00;;;;;;;6.47;2.17;;;;;;;11.17;100.00;96877.72;5050885;28;20049;-64
2023/10/23 10:57:27;;;;;;;4.32;1.95;;;;;;;11.24;100.00;96870.13;5044222;28;20049;-67
2023/10/23 10:59:55;;;;;;;5.05;1.73;;;;;;;11.30;100.00;96860.13;5036070;28;20037;-64
2023/10/23 11:02:22;;;;;;;8.35;3.22;;;;;;;11.36;100.00;96860.94;5041190;28;20041;-65
2023/10/23 11:04:49;;;;;;;5.22;1.63;;;;;;;11.41;100.00;96855.53;5044360;28;20049;-64
2023/10/23 11:07:26;;;;;;;7.32;1.90;;;;;;;11.43;99.69;96854.16;5043713;28;20052;-65
2023/10/23 11:09:53;;;;;;;2.80;1.70;;;;;;;11.48;99.44;96856.06;5041548;28;20804;-64
2023/10/23 11:12:21;;;;;;;5.97;2.45;;;;;;;11.52;98.95;96842.78;5046801;28;20041;-64
2023/10/23 11:14:48;;;;;;;6.07;1.92;;;;;;;11.57;99.85;96835.47;5039615;28;20045;-65
2023/10/23 11:17:15;;;;;;;5.40;1.80;;;;;;;11.67;100.00;96828.41;5043081;28;20033;-65
2023/10/23 11:19:43;;;;;;;5.57;1.88;;;;;;;11.76;99.05;96823.25;5044992;28;20562;-64
2023/10/23 11:22:11;;;;;;;4.13;1.70;;;;;;;11.75;98.40;96816.22;5046517;28;20044;-64
2023/10/23 11:24:39;;;;;;;4.40;2.22;;;;;;;11.81;97.29;96815.09;5044816;28;20088;-64
2023/10/23 11:27:06;;;;;;;3.75;1.88;;;;;;;11.66;97.28;96805.09;5043277;28;20604;-64
2023/10/23 11:29:51;;;;;;;8.23;2.10;;;;;;;11.83;97.16;96802.06;5041028;28;20044;-66
2023/10/23 11:32:18;;;;;;;5.15;1.60;;;;;;;11.96;96.47;96806.94;5048733;28;20037;-65
2023/10/23 11:34:45;;;;;;;3.20;1.67;;;;;;;12.05;95.69;96792.81;5036519;28;20385;-65